Huvudsida
METAR-TAF:

METAR-TAF

Flygplatser :

Brønnøysunds flygplats. Brønnøy

Brønnøysund, Norge

latitud: 65-28N, longitud: 012-13E, höjd: 0 m

Aktuellt väderrapport

Denna rapport gjordes för 29 minuter sedan, klockan 09:50 UTC
Vind 7 kt från ost/sydost, varierande mellan ost och syd
Temperatur 9°C
Fuktighet 53%
Tryck 1007 hPa
Sikt 10 km eller mer
Spridda moln på en höjd av 3700 ft

METAR: ENBN 250950Z 11007KT 090V170 9999 SCT037 09/M00 Q1007

Tid: 12:19 (10:19 UTC)

Väderprognos

Denna rapport gjordes för 2 timmar och 19 minuter sedan, klockan 08:00 UTC
Prognos gäller från 25 kl. 09 UTC till 25 kl. 18 UTC
Vind 8 kt från sydost
Sikt 10 km eller mer
Få moln på en höjd av 2500 ft
Spridda moln på en höjd av 4500 ft
Temporärt
från 25 kl. 09 UTC till 25 kl. 17 UTC
Spridda moln på en höjd av 3000 ft, Högtornande cumulus.
Brutna moln på en höjd av 4000 ft

TAF: ENBN 250800Z 2509/2518 13008KT 9999 FEW025 SCT045 TEMPO 2509/2517 SCT030TCU BKN040

Aktuella väderrapporter och prognoser från 4000 flygplatser (METAR- och TAF-rapporter).

De tillgängliga stationerna syns som gula och röda prickar på kartan.

För musen över prickarna för att se namnen på stationerna.

Klicka sedan för att få väderrapporter och prognoser.

För att ändra kartan: Klicka på de gröna knapparna med ett svart kors på för att zooma in; den gröna knappen med ett streck på för att zooma ut; eller på de gröna pilarna för angränsande kartor.


METAR-TAF: